Flight Track Log - Related Links

Times and Time Zones

All times are in EDT time to prevent confusion due to time zone crossing. See the TMC452 flight status page for this flight to view local times or setup timezone preferences in your user account.


Time Position Orientation Groundspeed Altitude Reporting Facility
EDT Latitude Longitude Course Direction KTS MPH feet Rate Location/Type
Sat 10:55:17 AM 40.8167 -73.0833 72° East 180 207 1,400  Level New York TRACON
Sat 10:56:11 AM 40.8333 -73.0167 72° East 217 250 3,800 2,895 Climbing New York TRACON
Sat 10:57:11 AM 40.8667 -72.9333 62° Northeast 244 281 6,900 1,696 Climbing New York TRACON
Sat 10:59:15 AM 40.8975 -72.7586 77° East 253 291 9,000 1,011 Climbing Boston Center
Sat 11:00:15 AM 40.8975 -72.6681 90° East 253 291 10,000 500 Climbing Boston Center
Sat 11:01:15 AM 40.8622 -72.5964 123° Southeast 218 251 10,000 850 Level Boston Center
Sat 11:02:15 AM 40.8061 -72.5772 166° South 213 245 11,700 1,950 Climbing Boston Center
Sat 11:03:15 AM 40.7372 -72.5469 162° South 223 257 13,900 2,100 Climbing Boston Center
Sat 11:04:15 AM 40.6811 -72.6014 216° Southwest 213 245 15,900 1,750 Climbing Boston Center
Sat 11:05:15 AM 40.6267 -72.6725 225° Southwest 244 281 17,400 1,350 Climbing Boston Center
Sat 11:06:15 AM 40.5661 -72.7433 222° Southwest 269 310 18,600 1,150 Climbing Boston Center
Sat 11:07:15 AM 40.5158 -72.8442 237° Southwest 299 344 19,700 1,050 Climbing Boston Center
Sat 11:08:15 AM 40.4922 -72.9639 255° West 310 357 20,700 1,050 Climbing Boston Center
Sat 11:09:15 AM 40.4689 -73.0867 256° West 334 384 21,800 1,100 Climbing Boston Center
Sat 11:10:15 AM 40.4472 -73.2144 257° West 354 407 22,900 1,150 Climbing Boston Center
Sat 11:11:15 AM 40.4192 -73.3394 254° West 354 407 24,100 1,108 Climbing Boston Center
Sat 11:12:52 AM 40.3547 -73.5136 244° Southwest 358 412 25,800 1,032 Climbing New York Center
Sat 11:13:52 AM 40.3308 -73.6406 256° West 358 412 26,800 950 Climbing New York Center
Sat 11:14:52 AM 40.3131 -73.7733 260° West 358 412 27,700 942 Climbing New York Center
Sat 11:15:53 AM 40.2906 -73.9139 258° West 363 418 28,700 942 Climbing New York Center
Sat 11:16:53 AM 40.2703 -74.0461 259° West 370 426 29,600 864 Climbing New York Center
Sat 11:17:51 AM 40.2497 -74.1867 259° West 383 441 30,400 763 Climbing New York Center
Sat 11:18:51 AM 40.2289 -74.3214 259° West 383 441 31,100 645 Climbing New York Center
Sat 11:19:52 AM 40.2081 -74.4589 259° West 394 453 31,700 645 Climbing New York Center
Sat 11:20:52 AM 40.1931 -74.6050 262° West 400 460 32,400 595 Climbing New York Center
Sat 11:21:53 AM 40.1819 -74.7456 264° West 400 460 32,900 504 Climbing New York Center
Sat 11:22:51 AM 40.1750 -74.8892 266° West 408 470 33,400 504 Climbing New York Center
Sat 11:23:52 AM 40.1633 -75.0406 264° West 408 470 33,900 545 Climbing New York Center
Sat 11:24:52 AM 40.1517 -75.1867 264° West 408 470 34,500 555 Climbing New York Center
Sat 11:25:51 AM 40.1383 -75.3186 263° West 416 479 35,000 555 Climbing New York Center
Sat 11:26:51 AM 40.0917 -75.4486 265° West 416 479 35,600 545 Climbing New York Center
Sat 11:27:00 AM 40.1089 -75.4741 265° West  Level FlightAware Approximate
Sat 11:27:52 AM 40.0264 -75.5689 235° Southwest 400 460 36,100  Level New York Center
Sat 11:28:53 AM 39.9633 -75.6839 234° Southwest 400 460 36,700 555 Climbing New York Center
Sat 11:29:51 AM 39.8981 -75.7983 233° Southwest 400 460 37,200 555 Climbing New York Center
Sat 11:30:52 AM 39.8306 -75.9125 232° Southwest 400 460 37,800 541 Climbing New York Center
Sat 11:31:53 AM 39.7694 -76.0214 234° Southwest 395 455 38,300 545 Climbing New York Center
Sat 11:32:53 AM 39.7039 -76.1353 233° Southwest 390 449 38,900 450 Climbing New York Center
Sat 11:33:53 AM 39.6294 -76.2564 231° Southwest 395 455 39,200 224 Climbing New York Center
Sat 11:35:07 AM 39.5569 -76.3828 233° Southwest 400 460 39,400 179 Climbing Washington Center
Sat 11:36:07 AM 39.4894 -76.4978 233° Southwest 400 460 39,600 203 Climbing Washington Center
Sat 11:37:05 AM 39.4217 -76.6097 232° Southwest 400 460 39,800 203 Climbing Washington Center
Sat 11:38:05 AM 39.3542 -76.7242 233° Southwest 405 466 40,000 99 Climbing Washington Center
Sat 11:39:06 AM 39.2800 -76.8517 233° Southwest 405 466 40,000  Level Washington Center
Sat 11:40:06 AM 39.2183 -76.9578 233° Southwest 405 466 40,000  Level Washington Center
Sat 11:41:05 AM 39.1481 -77.0717 232° Southwest 405 466 40,000  Level Washington Center
Sat 11:42:07 AM 39.0800 -77.1878 233° Southwest 405 466 40,000  Level Washington Center
Sat 11:43:07 AM 39.0053 -77.3119 232° Southwest 405 466 40,000  Level Washington Center
Sat 11:44:05 AM 38.9369 -77.4222 231° Southwest 405 466 40,000  Level Washington Center
Sat 11:45:06 AM 38.8664 -77.5378 232° Southwest 418 481 40,000  Level Washington Center
Sat 11:46:07 AM 38.7914 -77.6531 230° Southwest 427 491 40,000  Level Washington Center
Sat 11:47:05 AM 38.7228 -77.7708 233° Southwest 428 493 40,000  Level Washington Center
Sat 11:48:06 AM 38.6581 -77.8861 234° Southwest 422 486 40,000  Level Washington Center
Sat 11:49:06 AM 38.5892 -77.9981 232° Southwest 417 480 40,000  Level Washington Center
Sat 11:50:07 AM 38.5222 -78.1100 233° Southwest 411 473 40,000 99 Level Washington Center
Sat 11:51:07 AM 38.4508 -78.2269 232° Southwest 411 473 40,200 305 Climbing Washington Center
Sat 11:52:05 AM 38.3817 -78.3383 232° Southwest 411 473 40,600 356 Climbing Washington Center
Sat 11:53:05 AM 38.3122 -78.4497 232° Southwest 411 473 40,900 347 Climbing Washington Center
Sat 11:54:06 AM 38.2492 -78.5608 234° Southwest 400 460 41,300 393 Climbing Washington Center
Sat 11:55:07 AM 38.1839 -78.6639 231° Southwest 400 460 41,700 298 Climbing Washington Center
Sat 11:56:07 AM 38.1186 -78.7722 233° Southwest 400 460 41,900 153 Climbing Washington Center
Sat 11:57:05 AM 38.0489 -78.8800 231° Southwest 400 460 42,000 102 Climbing Washington Center
Sat 11:58:05 AM 37.9878 -78.9775 232° Southwest 400 460 42,100 99 Climbing Washington Center
Sat 11:59:06 AM 37.9200 -79.0850 231° Southwest 400 460 42,200 98 Climbing Washington Center
Sat 12:00:07 PM 37.8483 -79.1869 228° Southwest 400 460 42,300 149 Climbing Washington Center
Sat 12:01:07 PM 37.7742 -79.2883 227° Southwest 400 460 42,500 202 Climbing Washington Center
Sat 12:02:06 PM 37.6936 -79.4000 228° Southwest 402 463 42,700 150 Climbing Washington Center
Sat 12:03:07 PM 37.6281 -79.4911 228° Southwest 402 463 42,800 148 Climbing Washington Center
Sat 12:04:08 PM 37.5472 -79.6022 227° Southwest 395 455 43,000 102 Climbing Washington Center
Sat 12:05:05 PM 37.4839 -79.6903 228° Southwest 390 449 43,000  Level Washington Center
Sat 12:06:06 PM 37.4006 -79.8011 227° Southwest 396 456 43,000  Level Washington Center
Sat 12:07:07 PM 37.3283 -79.8989 227° Southwest 396 456 43,000  Level Washington Center
Sat 12:09:19 PM 37.1714 -80.1058 226° Southwest 392 451 43,000  Level Atlanta Center
Sat 12:10:19 PM 37.0994 -80.2031 227° Southwest 387 445 43,000  Level Atlanta Center
Sat 12:11:19 PM 37.0272 -80.3003 227° Southwest 387 445 43,000  Level Atlanta Center
Sat 12:12:19 PM 36.9339 -80.3853 216° Southwest 381 438 43,000  Level Atlanta Center
Sat 12:13:19 PM 36.8464 -80.4567 213° Southwest 376 433 43,000  Level Atlanta Center
Sat 12:14:19 PM 36.7650 -80.5278 215° Southwest 376 433 43,000  Level Atlanta Center
Sat 12:15:19 PM 36.6917 -80.5878 213° Southwest 370 426 43,000  Level Atlanta Center
Sat 12:16:19 PM 36.6061 -80.6561 213° Southwest 365 420 43,000  Level Atlanta Center
Sat 12:17:19 PM 36.5206 -80.7294 215° Southwest 370 426 43,000  Level Atlanta Center
Sat 12:18:19 PM 36.4369 -80.8000 214° Southwest 370 426 43,000  Level Atlanta Center
Sat 12:19:19 PM 36.3511 -80.8681 213° Southwest 370 426 43,000  Level Atlanta Center
Sat 12:20:19 PM 36.2653 -80.9408 214° Southwest 370 426 43,000  Level Atlanta Center
Sat 12:21:19 PM 36.1733 -81.0164 214° Southwest 370 426 43,000  Level Atlanta Center
Sat 12:22:19 PM 36.0853 -81.0867 213° Southwest 370 426 43,000  Level Atlanta Center
Sat 12:23:19 PM 36.0014 -81.1564 214° Southwest 370 426 43,000  Level Atlanta Center
Sat 12:24:19 PM 35.9156 -81.2261 213° Southwest 370 426 43,000  Level Atlanta Center
Sat 12:25:19 PM 35.8317 -81.2956 214° Southwest 363 418 43,000  Level Atlanta Center
Sat 12:26:19 PM 35.7456 -81.3725 216° Southwest 374 430 43,000  Level Atlanta Center
Sat 12:27:19 PM 35.6553 -81.4447 213° Southwest 388 447 43,000  Level Atlanta Center
Sat 12:28:19 PM 35.5669 -81.5111 211° Southwest 390 449 43,000  Level Atlanta Center
Sat 12:29:19 PM 35.4786 -81.5778 212° Southwest 384 442 43,000  Level Atlanta Center
Sat 12:30:19 PM 35.3944 -81.6464 214° Southwest 379 436 43,000  Level Atlanta Center
Sat 12:31:19 PM 35.3061 -81.7153 212° Southwest 379 436 43,000  Level Atlanta Center
Sat 12:32:19 PM 35.2197 -81.7836 213° Southwest 379 436 43,000  Level Atlanta Center
Sat 12:33:19 PM 35.1203 -81.8144 194° South 379 436 43,000  Level Atlanta Center
Sat 12:34:19 PM 35.0203 -81.8322 188° South 364 419 43,000  Level Atlanta Center
Sat 12:35:19 PM 34.9183 -81.8475 187° South 370 426 43,000  Level Atlanta Center
Sat 12:36:19 PM 34.8164 -81.8656 188° South 370 426 43,000  Level Atlanta Center
Sat 12:37:19 PM 34.7292 -81.8803 188° South 370 426 43,000  Level Atlanta Center
Sat 12:38:19 PM 34.6269 -81.8956 187° South 370 426 43,000  Level Atlanta Center
Sat 12:39:19 PM 34.5272 -81.9108 187° South 370 426 43,000  Level Atlanta Center
Sat 12:40:19 PM 34.4253 -81.9283 188° South 370 426 43,000  Level Atlanta Center
Sat 12:41:19 PM 34.3275 -81.9436 187° South 370 426 43,000  Level Atlanta Center
Sat 12:42:19 PM 34.2233 -81.9586 187° South 370 426 43,000  Level Atlanta Center
Sat 12:43:19 PM 34.1214 -81.9761 188° South 370 426 43,000  Level Atlanta Center
Sat 12:44:19 PM 34.0214 -81.9911 187° South 370 426 43,000  Level Atlanta Center
Sat 12:45:19 PM 33.9194 -82.0086 188° South 370 426 43,000  Level Atlanta Center
Sat 12:46:19 PM 33.8194 -82.0233 187° South 370 426 43,000  Level Atlanta Center
Sat 12:47:19 PM 33.7153 -82.0408 188° South 370 426 43,000  Level Atlanta Center
Sat 12:48:19 PM 33.6133 -82.0583 188° South 370 426 43,000  Level Atlanta Center
Sat 12:49:19 PM 33.5072 -82.0756 188° South 370 426 43,000  Level Atlanta Center
Sat 12:50:19 PM 33.4072 -82.0953 189° South 370 426 43,000  Level Atlanta Center
Sat 12:51:19 PM 33.3031 -82.1100 187° South 370 426 43,000  Level Atlanta Center
Sat 12:52:19 PM 33.2011 -82.1272 188° South 370 426 43,000  Level Atlanta Center
Sat 12:54:14 PM 32.9953 -82.1619 188° South 368 423 43,000  Level Jacksonville Center
Sat 12:55:14 PM 32.9014 -82.1750 187° South 377 434 43,000  Level Jacksonville Center
Sat 12:56:14 PM 32.7908 -82.1958 189° South 377 434 43,000  Level Jacksonville Center
Sat 12:57:14 PM 32.6969 -82.2089 187° South 372 428 43,000  Level Jacksonville Center
Sat 12:58:14 PM 32.5969 -82.2244 187° South 372 428 43,000  Level Jacksonville Center
Sat 12:59:14 PM 32.4947 -82.2447 189° South 372 428 43,000  Level Jacksonville Center
Sat 01:00:14 PM 32.3864 -82.2628 188° South 367 422 43,000  Level Jacksonville Center
Sat 01:01:14 PM 32.2883 -82.2783 188° South 367 422 43,000  Level Jacksonville Center
Sat 01:02:14 PM 32.1944 -82.2936 188° South 372 428 43,000  Level Jacksonville Center
Sat 01:03:14 PM 32.0817 -82.3114 188° South 366 421 43,000  Level Jacksonville Center
Sat 01:04:14 PM 32.0003 -82.3217 186° South 371 427 43,000  Level Jacksonville Center
Sat 01:05:14 PM 31.8792 -82.3397 187° South 371 427 43,000  Level Jacksonville Center
Sat 01:06:14 PM 31.7769 -82.3550 187° South 371 427 43,000  Level Jacksonville Center
Sat 01:07:14 PM 31.6769 -82.3703 187° South 371 427 43,000  Level Jacksonville Center
Sat 01:08:14 PM 31.5747 -82.3853 187° South 371 427 43,000  Level Jacksonville Center
Sat 01:09:14 PM 31.4683 -82.4031 188° South 371 427 43,000  Level Jacksonville Center
Sat 01:10:14 PM 31.3681 -82.4206 188° South 371 427 43,000 -250 Level Jacksonville Center
Sat 01:11:14 PM 31.2636 -82.4381 188° South 376 433 42,500 -750 Descending Jacksonville Center
Sat 01:12:14 PM 31.1572 -82.4581 189° South 381 438 41,500 -1,050 Descending Jacksonville Center
Sat 01:13:14 PM 31.0489 -82.4731 187° South 381 438 40,400 -750 Descending Jacksonville Center
Sat 01:14:14 PM 30.9425 -82.4881 187° South 391 450 40,000 -200 Descending Jacksonville Center
Sat 01:15:14 PM 30.8358 -82.5056 188° South 391 450 40,000  Level Jacksonville Center
Sat 01:16:14 PM 30.7378 -82.5203 187° South 396 456 40,000  Level Jacksonville Center
Sat 01:17:14 PM 30.6314 -82.5353 187° South 396 456 40,000 -100 Level Jacksonville Center
Sat 01:18:14 PM 30.5269 -82.5356 180° South 384 442 39,800 -450 Descending Jacksonville Center
Sat 01:19:14 PM 30.4206 -82.5047 166° South 379 436 39,100 -700 Descending Jacksonville Center
Sat 01:20:14 PM 30.3119 -82.5292 191° South 384 442 38,400 -700 Descending Jacksonville Center
Sat 01:21:14 PM 30.2056 -82.5656 196° South 390 449 37,700 -750 Descending Jacksonville Center
Sat 01:22:14 PM 30.1033 -82.6236 206° Southwest 395 455 36,900 -800 Descending Jacksonville Center
Sat 01:23:14 PM 30.0431 -82.7269 236° Southwest 384 442 36,100 -750 Descending Jacksonville Center
Sat 01:24:14 PM 30.0139 -82.8661 256° West 403 464 35,400 -700 Descending Jacksonville Center
Sat 01:25:14 PM 29.9847 -82.9958 255° West 415 478 34,700 -750 Descending Jacksonville Center
Sat 01:26:14 PM 29.9594 -83.1250 257° West 415 478 33,900 -750 Descending Jacksonville Center
Sat 01:27:14 PM 29.8839 -83.2208 228° Southwest 406 467 33,200 -700 Descending Jacksonville Center
Sat 01:28:14 PM 29.7650 -83.2561 194° South 378 435 32,500 -750 Descending Jacksonville Center
Sat 01:29:14 PM 29.6522 -83.2703 186° South 384 442 31,700 -750 Descending Jacksonville Center
Sat 01:30:14 PM 29.5372 -83.2842 186° South 407 468 31,000 -350 Descending Jacksonville Center
Sat 01:31:14 PM 29.4225 -83.2956 185° South 417 480 31,000  Level Jacksonville Center
Sat 01:32:14 PM 29.3097 -83.3094 186° South 417 480 31,000  Level Jacksonville Center
Sat 01:33:14 PM 29.1947 -83.3231 186° South 417 480 31,000 -100 Level Jacksonville Center
Sat 01:34:14 PM 29.0800 -83.3369 186° South 417 480 30,800 -1,350 Descending Jacksonville Center
Sat 01:35:14 PM 28.9631 -83.3483 185° South 422 486 28,300 -2,400 Descending Jacksonville Center
Sat 01:36:14 PM 28.8544 -83.3336 173° South 403 464 26,000 -2,100 Descending Jacksonville Center
Sat 01:37:14 PM 28.7714 -83.2622 143° Southeast 371 427 24,100 -1,500 Descending Jacksonville Center
Sat 01:38:14 PM 28.7153 -83.1672 124° Southeast 364 419 23,000 -1,000 Descending Jacksonville Center
Sat 01:39:14 PM 28.6444 -83.0961 139° Southeast 351 404 22,100 -1,400 Descending Jacksonville Center
Sat 01:40:14 PM 28.5525 -83.0817 172° South 315 362 20,200 -1,550 Descending Jacksonville Center
Sat 01:41:14 PM 28.4628 -83.0767 177° South 320 368 19,000 -600 Descending Jacksonville Center
Sat 01:42:14 PM 28.3772 -83.0767 180° South 315 362 19,000 -514 Level Jacksonville Center
Sat 01:42:59 PM 28.3167 -83.0667 172° South 313 360 18,100 -2,649 Descending Tampa TRACON
Sat 01:44:05 PM 28.2167 -83.0667 180° South 312 359 14,100 -2,600 Descending Tampa TRACON
Sat 01:44:59 PM 28.1500 -83.0500 168° South 298 343 12,900 -1,200 Descending Tampa TRACON
Sat 01:46:05 PM 28.0500 -83.0167 164° South 272 313 11,700 -857 Descending Tampa TRACON
Sat 01:47:05 PM 27.9833 -83.0167 180° South 289 333 11,100 -450 Descending Tampa TRACON
Sat 01:48:05 PM 27.9000 -83.0167 180° South 282 325 10,800 -750 Descending Tampa TRACON
Sat 01:49:05 PM 27.8167 -83.0167 180° South 266 306 9,600 -1,200 Descending Tampa TRACON
Sat 01:50:05 PM 27.7667 -82.9833 149° Southeast 263 303 8,400 -1,368 Descending Tampa TRACON
Sat 01:50:59 PM 27.7167 -82.9167 130° Southeast 258 297 7,000 -1,500 Descending Tampa TRACON
Sat 01:52:05 PM 27.6667 -82.8667 138° Southeast 250 288 5,400 -952 Descending Tampa TRACON
Sat 01:53:05 PM 27.6167 -82.8167 138° Southeast 219 252 5,000 -694 Descending Tampa TRACON
Sat 01:54:06 PM 27.5833 -82.7667 127° Southeast 217 250 4,000 -950 Descending Tampa TRACON
Sat 01:55:05 PM 27.5333 -82.7167 138° Southeast 214 246 3,100 -632 Descending Tampa TRACON
Sat 01:56:00 PM 27.5000 -82.6667 127° Southeast 202 232 2,800 -678 Descending Tampa TRACON
Sat 01:57:00 PM 27.4667 -82.6333 138° Southeast 185 213 1,800 -850 Descending Tampa TRACON
Sat 01:58:00 PM 27.4333 -82.6000 138° Southeast 131 151 1,100 -650 Descending Tampa TRACON
Sat 01:59:00 PM 27.4167 -82.5833 138° Southeast 116 133 500 -600 Descending Tampa TRACON
Sat 02:00:00 PM 27.3954 -82.5544 138° Southeast  Level Estimated
Sat 02:07:00 PM 27.3954 -82.5544 138° Southeast  Level Estimated
Sat 02:08:00 PM 27.3954 -82.5544 138° Southeast  Level Estimated

Login

Don't have an account? Register now (free) for customized features, flight alerts, and more!